createdAt,value
2022-10-11T00:00:42.823Z,14.70
2022-10-11T00:03:09.762Z,15.10
2022-10-11T00:05:36.733Z,18.10
2022-10-11T00:08:05.653Z,19.30
2022-10-11T00:10:33.426Z,19.50
2022-10-11T00:13:00.425Z,17.60
2022-10-11T00:15:27.351Z,17.80
2022-10-11T00:17:54.212Z,18.50
2022-10-11T00:20:21.188Z,16.90
2022-10-11T00:22:49.456Z,15.10
2022-10-11T00:25:16.600Z,14.90
2022-10-11T00:27:43.553Z,16.50
2022-10-11T00:30:10.976Z,16.40
2022-10-11T00:32:38.466Z,15.30
2022-10-11T00:35:06.553Z,14.30
2022-10-11T00:37:36.390Z,14.80
2022-10-11T00:40:05.528Z,15.50
2022-10-11T00:42:32.554Z,15.10
2022-10-11T00:45:27.495Z,13.50
2022-10-11T00:47:55.436Z,13.70
2022-10-11T00:50:23.066Z,13.90
2022-10-11T00:52:54.864Z,12.70
2022-10-11T00:55:21.821Z,13.10
2022-10-11T00:57:48.963Z,13.40
2022-10-11T01:00:16.346Z,12.60
2022-10-11T01:02:43.293Z,13.30
2022-10-11T01:05:28.697Z,13.60
2022-10-11T01:07:58.770Z,13.20
2022-10-11T01:10:25.971Z,13.50
2022-10-11T01:13:06.534Z,13.30
2022-10-11T01:15:45.109Z,13.80
2022-10-11T01:18:20.612Z,12.60
2022-10-11T01:21:15.358Z,14.10
2022-10-11T01:24:07.468Z,14.70
2022-10-11T01:28:16.300Z,16.70
2022-10-11T01:30:43.572Z,15.40
2022-10-11T01:33:36.119Z,16.20
2022-10-11T01:36:09.313Z,14.10
2022-10-11T01:41:24.298Z,14.30
2022-10-11T01:43:57.234Z,13.80
2022-10-11T01:46:33.291Z,14.30
2022-10-11T01:49:01.097Z,14.10
2022-10-11T01:51:33.568Z,15.60
2022-10-11T01:58:04.783Z,13.50
2022-10-11T02:00:38.882Z,13.40
2022-10-11T02:03:18.193Z,13.00
2022-10-11T02:06:10.739Z,13.30
2022-10-11T02:08:45.978Z,12.10
2022-10-11T02:11:17.222Z,13.80
2022-10-11T02:13:58.001Z,12.30
2022-10-11T02:16:28.701Z,13.50
2022-10-11T02:18:55.876Z,13.10
2022-10-11T02:21:23.330Z,13.50
2022-10-11T02:23:53.924Z,14.50
2022-10-11T02:26:21.827Z,13.70
2022-10-11T02:28:48.942Z,14.00
2022-10-11T02:31:16.332Z,14.40
2022-10-11T02:33:47.081Z,12.90
2022-10-11T02:36:27.051Z,14.50
2022-10-11T02:38:55.817Z,13.50
2022-10-11T02:41:29.914Z,12.70
2022-10-11T02:44:06.840Z,13.20
2022-10-11T02:46:33.956Z,13.40
2022-10-11T02:49:01.298Z,15.00
2022-10-11T02:51:30.804Z,13.00
2022-10-11T02:53:58.198Z,12.50
2022-10-11T02:56:25.202Z,14.20
2022-10-11T02:58:52.147Z,14.40
2022-10-11T03:01:19.556Z,13.50
2022-10-11T03:03:46.856Z,13.60
2022-10-11T03:06:13.906Z,13.70
2022-10-11T13:45:41.034Z,7.20
2022-10-11T13:48:14.838Z,6.70
2022-10-11T13:50:51.870Z,7.70
2022-10-11T13:53:23.181Z,7.10
2022-10-11T13:55:52.725Z,6.90
2022-10-11T13:58:26.837Z,8.20
2022-10-11T14:00:58.350Z,7.60
2022-10-11T14:03:43.886Z,7.00
2022-10-11T14:06:10.916Z,7.20
2022-10-11T14:08:39.205Z,7.80
2022-10-11T14:11:07.297Z,8.60
2022-10-11T14:13:42.399Z,8.10
2022-10-11T14:16:12.313Z,11.30
2022-10-11T14:18:44.387Z,8.20
2022-10-11T14:23:50.453Z,6.80
2022-10-11T14:26:18.924Z,6.10
2022-10-11T14:28:51.644Z,6.60
2022-10-11T14:31:20.404Z,6.10
2022-10-11T14:33:47.773Z,6.00
2022-10-11T14:36:15.211Z,6.30
2022-10-11T14:38:42.367Z,5.70
2022-10-11T14:41:09.624Z,6.10
2022-10-11T14:43:38.306Z,5.30
2022-10-11T14:46:06.453Z,5.30
2022-10-11T14:48:54.433Z,5.90
2022-10-11T14:51:29.650Z,6.40
2022-10-11T14:53:56.805Z,8.50
2022-10-11T14:56:23.901Z,9.40
2022-10-11T14:58:52.021Z,10.00
2022-10-11T15:01:23.209Z,11.00
2022-10-11T15:03:51.239Z,9.70
2022-10-11T15:06:33.402Z,9.50
2022-10-11T15:09:01.097Z,10.90
2022-10-11T15:11:29.683Z,10.90
2022-10-11T15:14:00.112Z,10.90
2022-10-11T15:16:28.084Z,10.70
2022-10-11T15:18:55.535Z,10.10
2022-10-11T15:21:27.759Z,10.30
2022-10-11T15:24:05.535Z,9.50
2022-10-11T15:26:53.094Z,10.10
2022-10-11T15:29:23.660Z,8.50
2022-10-11T15:31:53.675Z,8.40
2022-10-11T15:34:21.439Z,9.10
2022-10-11T15:36:50.752Z,10.10
2022-10-11T15:39:31.071Z,10.90
2022-10-11T15:42:03.366Z,9.60
2022-10-11T15:44:32.535Z,9.30
2022-10-11T15:47:00.549Z,9.00
2022-10-11T15:49:30.821Z,9.90
2022-10-11T15:52:00.571Z,11.10
2022-10-11T15:54:27.721Z,11.40
2022-10-11T15:56:54.867Z,11.20
2022-10-11T15:59:25.060Z,10.10
2022-10-11T16:01:52.736Z,11.80
2022-10-11T16:04:22.253Z,12.50
2022-10-11T16:06:49.848Z,13.80
2022-10-11T16:09:16.870Z,15.60
2022-10-11T16:11:43.920Z,17.30
2022-10-11T16:14:11.470Z,17.50
2022-10-11T16:16:38.516Z,18.50
2022-10-11T16:19:05.468Z,19.50
2022-10-11T16:21:32.607Z,19.10
2022-10-11T16:23:59.862Z,18.20
2022-10-11T16:26:26.806Z,17.40
2022-10-11T16:28:56.038Z,18.50
2022-10-11T16:31:23.354Z,23.30
2022-10-11T16:33:52.361Z,23.40
2022-10-11T16:36:36.504Z,26.10
2022-10-11T16:39:14.525Z,24.80
2022-10-11T16:41:42.263Z,23.90
2022-10-11T16:44:13.850Z,25.00
2022-10-11T16:46:41.068Z,27.20
2022-10-11T16:49:08.116Z,28.00
2022-10-11T16:51:35.270Z,25.90
2022-10-11T16:54:05.248Z,29.80
2022-10-11T16:56:36.047Z,30.20
2022-10-11T16:59:07.076Z,32.90
2022-10-11T17:01:34.511Z,30.00
2022-10-11T17:04:18.482Z,40.30
2022-10-11T17:06:47.390Z,41.40
2022-10-11T17:09:15.636Z,39.80
2022-10-11T17:11:43.020Z,42.30
2022-10-11T17:14:11.352Z,41.00
2022-10-11T17:16:38.605Z,45.20
2022-10-11T17:19:47.631Z,53.00
2022-10-11T17:26:26.581Z,59.90
2022-10-11T17:32:23.982Z,68.00
2022-10-11T17:34:51.019Z,72.30
2022-10-11T17:37:40.245Z,74.20
2022-10-11T17:40:11.082Z,69.00
2022-10-11T17:42:39.131Z,73.70
2022-10-11T17:45:07.203Z,73.40
2022-10-11T17:47:34.351Z,73.80
2022-10-11T17:50:03.477Z,74.30
2022-10-11T17:52:31.006Z,75.40
2022-10-11T17:54:58.058Z,71.10
2022-10-11T17:57:25.116Z,68.20
2022-10-11T17:59:52.265Z,64.20
2022-10-11T18:02:19.610Z,63.10
2022-10-11T18:04:46.657Z,62.10
2022-10-11T18:07:13.753Z,62.40
2022-10-11T18:09:43.005Z,62.90
2022-10-11T18:12:10.279Z,62.00
2022-10-11T18:14:37.417Z,60.30
2022-10-11T18:17:04.761Z,60.60
2022-10-11T18:19:32.835Z,52.90
2022-10-11T18:25:06.839Z,49.80
2022-10-11T18:27:33.699Z,45.80
2022-10-11T18:30:00.944Z,44.20
2022-10-11T18:32:28.091Z,38.10
2022-10-11T18:34:57.115Z,35.60
2022-10-11T18:37:24.136Z,37.10
2022-10-11T18:39:51.481Z,35.20
2022-10-11T18:42:20.030Z,34.20
2022-10-11T18:44:49.716Z,33.10
2022-10-11T18:47:17.543Z,32.40
2022-10-11T18:49:44.607Z,32.40
2022-10-11T18:52:12.047Z,31.70
2022-10-11T18:54:39.209Z,32.10
2022-10-11T18:57:06.447Z,31.60
2022-10-11T18:59:33.906Z,33.00
2022-10-11T19:02:04.587Z,32.80
2022-10-11T19:04:33.829Z,33.20
2022-10-11T19:07:01.386Z,31.70
2022-10-11T19:09:30.275Z,31.50
2022-10-11T19:11:57.734Z,28.40
2022-10-11T19:14:28.092Z,31.60
2022-10-11T19:16:55.618Z,31.40
2022-10-11T19:19:27.791Z,31.50
2022-10-11T19:21:55.389Z,31.90
2022-10-11T19:24:23.934Z,32.10
2022-10-11T19:26:52.610Z,30.90
2022-10-11T19:29:24.384Z,31.40
2022-10-11T19:31:56.432Z,31.90
2022-10-11T19:34:26.371Z,33.00
2022-10-11T19:36:56.317Z,32.30
2022-10-11T19:39:24.031Z,31.40
2022-10-11T19:41:53.431Z,29.70
2022-10-11T19:44:20.886Z,27.70
2022-10-11T19:46:52.300Z,29.60
2022-10-11T19:49:24.420Z,29.00
2022-10-11T19:51:55.347Z,28.80
2022-10-11T19:54:23.821Z,30.20
2022-10-11T19:56:53.854Z,29.30
2022-10-11T19:59:20.990Z,26.70
2022-10-11T20:01:52.457Z,27.10
2022-10-11T20:04:51.177Z,28.30
2022-10-11T20:07:08.039Z,29.60
2022-10-11T20:09:36.477Z,29.30
2022-10-11T20:12:04.072Z,29.20
2022-10-11T20:14:31.546Z,27.10
2022-10-11T20:16:58.987Z,27.10
2022-10-11T20:19:31.366Z,27.10
2022-10-11T20:21:59.951Z,27.90
2022-10-11T20:24:31.906Z,28.20
2022-10-11T20:27:00.091Z,27.10
2022-10-11T20:29:28.287Z,27.50
2022-10-11T20:31:56.015Z,28.10
2022-10-11T20:34:23.509Z,29.60
2022-10-11T20:36:50.580Z,31.80
2022-10-11T20:39:17.606Z,32.50
2022-10-11T20:41:44.716Z,32.10
2022-10-11T20:44:12.711Z,29.10
2022-10-11T20:46:39.704Z,28.20
2022-10-11T20:49:10.785Z,30.00
2022-10-11T20:51:38.948Z,25.60
2022-10-11T20:54:06.510Z,24.50
2022-10-11T20:56:34.679Z,22.10
2022-10-11T20:59:01.731Z,20.10
2022-10-11T21:01:34.769Z,20.50
2022-10-11T21:04:02.070Z,18.20
2022-10-11T21:14:17.630Z,15.40
2022-10-11T21:16:44.647Z,15.20
2022-10-11T21:19:13.366Z,14.80
2022-10-11T21:21:40.376Z,13.70
2022-10-11T21:24:07.859Z,13.10
2022-10-11T21:26:36.106Z,14.30
2022-10-11T21:29:04.384Z,12.60
2022-10-11T21:31:34.338Z,12.10
2022-10-11T21:34:02.499Z,11.70
2022-10-11T21:36:29.624Z,12.70
2022-10-11T21:38:56.669Z,12.40
2022-10-11T21:41:25.598Z,12.20
2022-10-11T21:43:53.270Z,10.00
2022-10-11T21:46:22.521Z,10.90
2022-10-11T21:48:50.362Z,11.00
2022-10-11T21:51:19.192Z,10.60
2022-10-11T21:53:46.324Z,10.80
2022-10-11T21:56:13.371Z,11.20
2022-10-11T21:58:40.520Z,10.20
2022-10-11T22:01:07.786Z,9.90
2022-10-11T22:03:34.921Z,10.50
2022-10-11T22:06:03.651Z,10.40
2022-10-11T22:08:30.762Z,11.40
2022-10-11T22:10:59.044Z,11.50
2022-10-11T22:13:27.415Z,10.90
2022-10-11T22:15:56.510Z,12.30
2022-10-11T22:18:30.916Z,12.70
2022-10-11T22:21:13.748Z,12.70
2022-10-11T22:23:45.407Z,12.10
2022-10-11T22:26:14.396Z,12.40
2022-10-11T22:28:41.600Z,11.30
2022-10-11T22:31:09.510Z,12.00
2022-10-11T22:33:36.946Z,11.20
2022-10-11T22:36:08.830Z,12.30
2022-10-11T22:38:40.381Z,12.40
2022-10-11T22:41:07.533Z,12.10
2022-10-11T22:43:34.575Z,11.60
2022-10-11T22:46:02.032Z,11.90
2022-10-11T22:48:29.120Z,12.20
2022-10-11T22:50:55.969Z,11.40
2022-10-11T22:53:23.014Z,12.20
2022-10-11T22:55:50.016Z,11.40
2022-10-11T22:58:17.067Z,11.90
2022-10-11T23:00:44.321Z,10.40
2022-10-11T23:03:15.499Z,12.20
2022-10-11T23:05:42.648Z,11.80
2022-10-11T23:08:09.964Z,12.20
2022-10-11T23:10:40.603Z,12.30
2022-10-11T23:13:07.640Z,11.90
2022-10-11T23:15:34.597Z,11.80
2022-10-11T23:18:01.736Z,12.30
2022-10-11T23:20:28.697Z,12.00
2022-10-11T23:22:55.732Z,12.40
2022-10-11T23:25:22.785Z,11.90
2022-10-11T23:27:49.821Z,12.30
2022-10-11T23:30:16.878Z,12.20
2022-10-11T23:32:43.916Z,13.80
2022-10-11T23:35:10.880Z,13.60
2022-10-11T23:37:38.459Z,14.50
2022-10-11T23:40:06.801Z,14.80
2022-10-11T23:42:34.050Z,14.00
2022-10-11T23:45:00.996Z,13.60
2022-10-11T23:47:27.980Z,14.20
2022-10-11T23:49:54.884Z,15.60
2022-10-11T23:52:21.931Z,16.60
2022-10-11T23:54:48.880Z,16.60
2022-10-11T23:57:15.890Z,16.40
2022-10-11T23:59:42.969Z,15.60
